sensor_id;sensor_type;location;lat;lon;timestamp;P1;durP1;ratioP1;P2;durP2;ratioP2
17953;SDS011;9102;53.548;9.926;2024-01-07T00:00:23;7.28;;;2.38;;
17953;SDS011;9102;53.548;9.926;2024-01-07T00:02:50;5.10;;;1.88;;
17953;SDS011;9102;53.548;9.926;2024-01-07T00:05:18;5.00;;;2.15;;
17953;SDS011;9102;53.548;9.926;2024-01-07T00:07:45;4.28;;;2.40;;
17953;SDS011;9102;53.548;9.926;2024-01-07T00:10:13;5.20;;;1.90;;
17953;SDS011;9102;53.548;9.926;2024-01-07T00:12:40;6.38;;;2.00;;
17953;SDS011;9102;53.548;9.926;2024-01-07T00:15:07;5.18;;;1.77;;
17953;SDS011;9102;53.548;9.926;2024-01-07T00:17:34;8.02;;;2.00;;
17953;SDS011;9102;53.548;9.926;2024-01-07T00:20:01;7.88;;;2.20;;
17953;SDS011;9102;53.548;9.926;2024-01-07T00:22:29;4.80;;;2.05;;
17953;SDS011;9102;53.548;9.926;2024-01-07T00:24:56;4.45;;;1.80;;
17953;SDS011;9102;53.548;9.926;2024-01-07T00:27:23;4.47;;;1.90;;
17953;SDS011;9102;53.548;9.926;2024-01-07T00:29:50;3.35;;;1.60;;
17953;SDS011;9102;53.548;9.926;2024-01-07T00:32:17;6.57;;;2.10;;
17953;SDS011;9102;53.548;9.926;2024-01-07T00:34:44;5.85;;;1.80;;
17953;SDS011;9102;53.548;9.926;2024-01-07T00:37:11;3.78;;;2.30;;
17953;SDS011;9102;53.548;9.926;2024-01-07T00:39:41;4.40;;;2.13;;
17953;SDS011;9102;53.548;9.926;2024-01-07T00:42:09;3.50;;;1.75;;
17953;SDS011;9102;53.548;9.926;2024-01-07T00:44:36;3.63;;;1.80;;
17953;SDS011;9102;53.548;9.926;2024-01-07T00:47:03;3.15;;;1.63;;
17953;SDS011;9102;53.548;9.926;2024-01-07T00:49:30;4.53;;;1.75;;
17953;SDS011;9102;53.548;9.926;2024-01-07T00:51:57;5.45;;;2.10;;
17953;SDS011;9102;53.548;9.926;2024-01-07T00:54:24;5.57;;;2.08;;
17953;SDS011;9102;53.548;9.926;2024-01-07T00:56:52;3.40;;;1.83;;
17953;SDS011;9102;53.548;9.926;2024-01-07T00:59:19;3.83;;;1.95;;
17953;SDS011;9102;53.548;9.926;2024-01-07T01:01:46;6.32;;;1.80;;
17953;SDS011;9102;53.548;9.926;2024-01-07T01:04:13;4.65;;;2.10;;
17953;SDS011;9102;53.548;9.926;2024-01-07T01:06:39;2.75;;;1.58;;
17953;SDS011;9102;53.548;9.926;2024-01-07T01:09:06;3.83;;;1.90;;
17953;SDS011;9102;53.548;9.926;2024-01-07T01:11:33;4.00;;;1.98;;
17953;SDS011;9102;53.548;9.926;2024-01-07T01:14:02;5.82;;;2.05;;
17953;SDS011;9102;53.548;9.926;2024-01-07T01:16:28;4.82;;;2.10;;
17953;SDS011;9102;53.548;9.926;2024-01-07T01:18:55;3.60;;;1.98;;
17953;SDS011;9102;53.548;9.926;2024-01-07T01:21:22;7.60;;;2.05;;
17953;SDS011;9102;53.548;9.926;2024-01-07T01:23:51;4.32;;;1.88;;
17953;SDS011;9102;53.548;9.926;2024-01-07T01:26:18;6.43;;;2.05;;
17953;SDS011;9102;53.548;9.926;2024-01-07T01:28:45;3.05;;;1.73;;
17953;SDS011;9102;53.548;9.926;2024-01-07T01:31:14;3.67;;;1.80;;
17953;SDS011;9102;53.548;9.926;2024-01-07T01:33:40;6.20;;;2.00;;
17953;SDS011;9102;53.548;9.926;2024-01-07T01:36:08;3.63;;;1.90;;
17953;SDS011;9102;53.548;9.926;2024-01-07T01:38:35;6.50;;;2.05;;
17953;SDS011;9102;53.548;9.926;2024-01-07T01:41:02;6.18;;;2.42;;
17953;SDS011;9102;53.548;9.926;2024-01-07T01:43:30;6.68;;;2.40;;
17953;SDS011;9102;53.548;9.926;2024-01-07T01:45:56;4.40;;;2.17;;
17953;SDS011;9102;53.548;9.926;2024-01-07T01:48:30;4.28;;;1.92;;
17953;SDS011;9102;53.548;9.926;2024-01-07T01:50:57;4.38;;;1.92;;
17953;SDS011;9102;53.548;9.926;2024-01-07T01:53:24;5.53;;;2.13;;
17953;SDS011;9102;53.548;9.926;2024-01-07T01:55:52;4.63;;;2.05;;
17953;SDS011;9102;53.548;9.926;2024-01-07T01:58:21;5.37;;;1.93;;
17953;SDS011;9102;53.548;9.926;2024-01-07T02:00:51;5.18;;;2.65;;
17953;SDS011;9102;53.548;9.926;2024-01-07T02:03:18;5.15;;;2.20;;
17953;SDS011;9102;53.548;9.926;2024-01-07T02:05:46;4.38;;;1.95;;
17953;SDS011;9102;53.548;9.926;2024-01-07T02:08:14;4.55;;;2.00;;
17953;SDS011;9102;53.548;9.926;2024-01-07T02:10:42;2.30;;;1.70;;
17953;SDS011;9102;53.548;9.926;2024-01-07T02:13:10;4.13;;;1.60;;
17953;SDS011;9102;53.548;9.926;2024-01-07T02:15:37;5.87;;;2.17;;
17953;SDS011;9102;53.548;9.926;2024-01-07T02:18:04;5.30;;;1.95;;
17953;SDS011;9102;53.548;9.926;2024-01-07T02:20:32;3.63;;;1.65;;
17953;SDS011;9102;53.548;9.926;2024-01-07T02:23:02;2.67;;;1.58;;
17953;SDS011;9102;53.548;9.926;2024-01-07T02:25:34;3.80;;;1.70;;
17953;SDS011;9102;53.548;9.926;2024-01-07T02:28:01;5.20;;;1.73;;
17953;SDS011;9102;53.548;9.926;2024-01-07T02:30:28;4.75;;;1.70;;
17953;SDS011;9102;53.548;9.926;2024-01-07T02:32:55;2.40;;;1.40;;
17953;SDS011;9102;53.548;9.926;2024-01-07T02:35:22;7.60;;;1.63;;
17953;SDS011;9102;53.548;9.926;2024-01-07T02:37:49;4.20;;;1.48;;
17953;SDS011;9102;53.548;9.926;2024-01-07T02:40:15;4.40;;;1.70;;
17953;SDS011;9102;53.548;9.926;2024-01-07T02:42:43;6.37;;;1.70;;
17953;SDS011;9102;53.548;9.926;2024-01-07T02:45:11;2.88;;;1.27;;
17953;SDS011;9102;53.548;9.926;2024-01-07T02:47:38;4.40;;;1.55;;
17953;SDS011;9102;53.548;9.926;2024-01-07T02:50:05;7.20;;;1.90;;
17953;SDS011;9102;53.548;9.926;2024-01-07T02:52:32;3.92;;;1.67;;
17953;SDS011;9102;53.548;9.926;2024-01-07T02:54:59;3.45;;;1.60;;
17953;SDS011;9102;53.548;9.926;2024-01-07T02:57:26;4.22;;;1.58;;
17953;SDS011;9102;53.548;9.926;2024-01-07T02:59:55;3.58;;;1.45;;
17953;SDS011;9102;53.548;9.926;2024-01-07T03:02:21;4.35;;;1.80;;
17953;SDS011;9102;53.548;9.926;2024-01-07T03:04:48;2.97;;;1.55;;
17953;SDS011;9102;53.548;9.926;2024-01-07T03:07:15;3.25;;;1.67;;
17953;SDS011;9102;53.548;9.926;2024-01-07T03:09:42;4.18;;;1.50;;
17953;SDS011;9102;53.548;9.926;2024-01-07T03:12:09;4.82;;;1.90;;
17953;SDS011;9102;53.548;9.926;2024-01-07T03:14:36;4.03;;;1.63;;
17953;SDS011;9102;53.548;9.926;2024-01-07T03:17:04;8.80;;;2.00;;
17953;SDS011;9102;53.548;9.926;2024-01-07T03:19:31;3.97;;;1.85;;
17953;SDS011;9102;53.548;9.926;2024-01-07T03:21:58;3.35;;;1.52;;
17953;SDS011;9102;53.548;9.926;2024-01-07T03:24:25;4.50;;;1.80;;
17953;SDS011;9102;53.548;9.926;2024-01-07T03:26:52;4.80;;;1.60;;
17953;SDS011;9102;53.548;9.926;2024-01-07T03:29:18;5.72;;;1.67;;
17953;SDS011;9102;53.548;9.926;2024-01-07T03:31:48;3.15;;;1.63;;
17953;SDS011;9102;53.548;9.926;2024-01-07T03:34:17;3.10;;;1.33;;
17953;SDS011;9102;53.548;9.926;2024-01-07T03:36:44;4.45;;;1.73;;
17953;SDS011;9102;53.548;9.926;2024-01-07T03:39:10;3.47;;;1.60;;
17953;SDS011;9102;53.548;9.926;2024-01-07T03:41:37;3.35;;;1.63;;
17953;SDS011;9102;53.548;9.926;2024-01-07T03:44:04;3.58;;;1.40;;
17953;SDS011;9102;53.548;9.926;2024-01-07T03:46:31;3.88;;;1.50;;
17953;SDS011;9102;53.548;9.926;2024-01-07T03:48:58;3.38;;;1.60;;
17953;SDS011;9102;53.548;9.926;2024-01-07T03:51:26;4.13;;;1.38;;
17953;SDS011;9102;53.548;9.926;2024-01-07T03:53:52;2.38;;;1.30;;
17953;SDS011;9102;53.548;9.926;2024-01-07T03:56:19;2.83;;;1.70;;
17953;SDS011;9102;53.548;9.926;2024-01-07T03:58:46;2.97;;;1.55;;
17953;SDS011;9102;53.548;9.926;2024-01-07T04:01:15;2.20;;;1.48;;
17953;SDS011;9102;53.548;9.926;2024-01-07T04:03:42;6.38;;;1.70;;
17953;SDS011;9102;53.548;9.926;2024-01-07T04:06:09;2.40;;;1.20;;
17953;SDS011;9102;53.548;9.926;2024-01-07T04:08:38;3.78;;;1.48;;
17953;SDS011;9102;53.548;9.926;2024-01-07T04:11:04;3.42;;;1.60;;
17953;SDS011;9102;53.548;9.926;2024-01-07T04:13:31;2.88;;;1.42;;
17953;SDS011;9102;53.548;9.926;2024-01-07T04:15:58;4.15;;;1.50;;
17953;SDS011;9102;53.548;9.926;2024-01-07T04:18:25;1.90;;;1.23;;
17953;SDS011;9102;53.548;9.926;2024-01-07T04:20:52;2.92;;;1.40;;
17953;SDS011;9102;53.548;9.926;2024-01-07T04:23:18;2.60;;;1.20;;
17953;SDS011;9102;53.548;9.926;2024-01-07T04:25:47;5.28;;;1.50;;
17953;SDS011;9102;53.548;9.926;2024-01-07T04:28:13;3.17;;;1.63;;
17953;SDS011;9102;53.548;9.926;2024-01-07T04:30:40;2.50;;;1.20;;
17953;SDS011;9102;53.548;9.926;2024-01-07T04:33:07;2.50;;;1.27;;
17953;SDS011;9102;53.548;9.926;2024-01-07T04:35:34;3.95;;;1.63;;
17953;SDS011;9102;53.548;9.926;2024-01-07T04:38:01;3.15;;;1.25;;
17953;SDS011;9102;53.548;9.926;2024-01-07T04:40:28;2.80;;;1.45;;
17953;SDS011;9102;53.548;9.926;2024-01-07T04:42:56;3.22;;;1.02;;
17953;SDS011;9102;53.548;9.926;2024-01-07T04:45:23;1.88;;;1.08;;
17953;SDS011;9102;53.548;9.926;2024-01-07T04:47:51;4.72;;;1.55;;
17953;SDS011;9102;53.548;9.926;2024-01-07T04:50:18;1.60;;;1.15;;
17953;SDS011;9102;53.548;9.926;2024-01-07T04:52:45;4.18;;;1.30;;
17953;SDS011;9102;53.548;9.926;2024-01-07T04:55:12;3.67;;;1.15;;
17953;SDS011;9102;53.548;9.926;2024-01-07T04:57:39;3.25;;;1.50;;
17953;SDS011;9102;53.548;9.926;2024-01-07T05:00:08;5.18;;;1.15;;
17953;SDS011;9102;53.548;9.926;2024-01-07T05:02:36;5.97;;;1.23;;
17953;SDS011;9102;53.548;9.926;2024-01-07T05:05:03;3.47;;;1.25;;
17953;SDS011;9102;53.548;9.926;2024-01-07T05:07:30;2.58;;;1.27;;
17953;SDS011;9102;53.548;9.926;2024-01-07T05:09:57;2.42;;;1.10;;
17953;SDS011;9102;53.548;9.926;2024-01-07T05:12:24;2.00;;;1.00;;
17953;SDS011;9102;53.548;9.926;2024-01-07T05:14:51;3.55;;;0.90;;
17953;SDS011;9102;53.548;9.926;2024-01-07T05:17:19;5.60;;;1.38;;
17953;SDS011;9102;53.548;9.926;2024-01-07T05:19:46;2.28;;;1.23;;
17953;SDS011;9102;53.548;9.926;2024-01-07T05:22:13;4.88;;;1.25;;
17953;SDS011;9102;53.548;9.926;2024-01-07T05:24:40;2.97;;;1.00;;
17953;SDS011;9102;53.548;9.926;2024-01-07T05:27:07;4.47;;;1.05;;
17953;SDS011;9102;53.548;9.926;2024-01-07T05:29:34;4.25;;;1.13;;
17953;SDS011;9102;53.548;9.926;2024-01-07T05:32:01;3.53;;;1.73;;
17953;SDS011;9102;53.548;9.926;2024-01-07T05:34:30;1.92;;;1.30;;
17953;SDS011;9102;53.548;9.926;2024-01-07T05:36:58;2.53;;;1.10;;
17953;SDS011;9102;53.548;9.926;2024-01-07T05:39:24;2.28;;;1.40;;
17953;SDS011;9102;53.548;9.926;2024-01-07T05:41:51;7.55;;;1.13;;
17953;SDS011;9102;53.548;9.926;2024-01-07T05:44:18;1.73;;;0.85;;
17953;SDS011;9102;53.548;9.926;2024-01-07T05:46:45;3.35;;;1.00;;
17953;SDS011;9102;53.548;9.926;2024-01-07T05:49:11;2.78;;;1.10;;
17953;SDS011;9102;53.548;9.926;2024-01-07T05:51:40;1.73;;;0.88;;
17953;SDS011;9102;53.548;9.926;2024-01-07T05:54:07;2.60;;;1.10;;
17953;SDS011;9102;53.548;9.926;2024-01-07T05:56:37;3.63;;;1.52;;
17953;SDS011;9102;53.548;9.926;2024-01-07T05:59:05;2.03;;;1.05;;
17953;SDS011;9102;53.548;9.926;2024-01-07T06:01:32;2.45;;;1.13;;
17953;SDS011;9102;53.548;9.926;2024-01-07T06:04:00;1.40;;;1.10;;
17953;SDS011;9102;53.548;9.926;2024-01-07T06:06:27;2.53;;;1.42;;
17953;SDS011;9102;53.548;9.926;2024-01-07T06:08:55;2.00;;;1.02;;
17953;SDS011;9102;53.548;9.926;2024-01-07T06:11:22;2.63;;;1.20;;
17953;SDS011;9102;53.548;9.926;2024-01-07T06:13:49;3.30;;;1.02;;
17953;SDS011;9102;53.548;9.926;2024-01-07T06:16:16;5.80;;;1.10;;
17953;SDS011;9102;53.548;9.926;2024-01-07T06:18:42;5.72;;;1.33;;
17953;SDS011;9102;53.548;9.926;2024-01-07T06:21:09;2.17;;;1.30;;
17953;SDS011;9102;53.548;9.926;2024-01-07T06:23:36;8.63;;;2.17;;
17953;SDS011;9102;53.548;9.926;2024-01-07T06:26:04;4.95;;;1.90;;
17953;SDS011;9102;53.548;9.926;2024-01-07T06:28:31;2.65;;;1.50;;
17953;SDS011;9102;53.548;9.926;2024-01-07T06:30:58;3.35;;;1.70;;
17953;SDS011;9102;53.548;9.926;2024-01-07T06:33:26;9.45;;;2.03;;
17953;SDS011;9102;53.548;9.926;2024-01-07T06:35:53;2.70;;;1.20;;
17953;SDS011;9102;53.548;9.926;2024-01-07T06:38:19;1.92;;;1.30;;
17953;SDS011;9102;53.548;9.926;2024-01-07T06:40:46;4.32;;;1.48;;
17953;SDS011;9102;53.548;9.926;2024-01-07T06:43:15;2.15;;;1.17;;
17953;SDS011;9102;53.548;9.926;2024-01-07T06:45:42;2.13;;;1.20;;
17953;SDS011;9102;53.548;9.926;2024-01-07T06:48:09;5.32;;;1.58;;
17953;SDS011;9102;53.548;9.926;2024-01-07T06:50:36;4.40;;;1.40;;
17953;SDS011;9102;53.548;9.926;2024-01-07T06:53:03;5.45;;;1.83;;
17953;SDS011;9102;53.548;9.926;2024-01-07T06:55:29;2.45;;;1.33;;
17953;SDS011;9102;53.548;9.926;2024-01-07T06:57:56;4.70;;;1.95;;
17953;SDS011;9102;53.548;9.926;2024-01-07T07:00:24;7.75;;;1.75;;
17953;SDS011;9102;53.548;9.926;2024-01-07T07:02:51;4.88;;;1.85;;
17953;SDS011;9102;53.548;9.926;2024-01-07T07:05:19;4.43;;;1.92;;
17953;SDS011;9102;53.548;9.926;2024-01-07T07:07:46;4.30;;;2.15;;
17953;SDS011;9102;53.548;9.926;2024-01-07T07:10:13;5.55;;;1.88;;
17953;SDS011;9102;53.548;9.926;2024-01-07T07:12:40;5.22;;;2.08;;
17953;SDS011;9102;53.548;9.926;2024-01-07T07:15:07;6.43;;;2.38;;
17953;SDS011;9102;53.548;9.926;2024-01-07T07:17:36;5.78;;;2.58;;
17953;SDS011;9102;53.548;9.926;2024-01-07T07:20:04;6.22;;;2.40;;
17953;SDS011;9102;53.548;9.926;2024-01-07T07:22:32;7.15;;;2.67;;
17953;SDS011;9102;53.548;9.926;2024-01-07T07:24:59;7.43;;;2.88;;
17953;SDS011;9102;53.548;9.926;2024-01-07T07:27:26;10.30;;;3.40;;
17953;SDS011;9102;53.548;9.926;2024-01-07T07:29:52;6.72;;;2.92;;
17953;SDS011;9102;53.548;9.926;2024-01-07T07:32:19;11.93;;;3.45;;
17953;SDS011;9102;53.548;9.926;2024-01-07T07:34:48;7.22;;;3.47;;
17953;SDS011;9102;53.548;9.926;2024-01-07T07:37:14;7.22;;;3.75;;
17953;SDS011;9102;53.548;9.926;2024-01-07T07:39:42;8.32;;;3.85;;
17953;SDS011;9102;53.548;9.926;2024-01-07T07:42:09;8.32;;;3.65;;
17953;SDS011;9102;53.548;9.926;2024-01-07T07:44:36;7.63;;;3.30;;
17953;SDS011;9102;53.548;9.926;2024-01-07T07:47:04;8.63;;;4.10;;
17953;SDS011;9102;53.548;9.926;2024-01-07T07:49:32;11.45;;;4.00;;
17953;SDS011;9102;53.548;9.926;2024-01-07T07:52:02;9.27;;;3.75;;
17953;SDS011;9102;53.548;9.926;2024-01-07T07:54:29;11.20;;;3.70;;
17953;SDS011;9102;53.548;9.926;2024-01-07T07:56:56;7.85;;;3.80;;
17953;SDS011;9102;53.548;9.926;2024-01-07T07:59:21;11.70;;;3.97;;
17953;SDS011;9102;53.548;9.926;2024-01-07T08:01:48;9.63;;;3.58;;
17953;SDS011;9102;53.548;9.926;2024-01-07T08:04:15;9.15;;;3.95;;
17953;SDS011;9102;53.548;9.926;2024-01-07T08:06:42;9.27;;;4.03;;
17953;SDS011;9102;53.548;9.926;2024-01-07T08:09:11;6.63;;;3.70;;
17953;SDS011;9102;53.548;9.926;2024-01-07T08:11:38;9.85;;;4.35;;
17953;SDS011;9102;53.548;9.926;2024-01-07T08:14:05;8.45;;;4.10;;
17953;SDS011;9102;53.548;9.926;2024-01-07T08:16:32;9.77;;;3.90;;
17953;SDS011;9102;53.548;9.926;2024-01-07T08:18:58;9.95;;;4.05;;
17953;SDS011;9102;53.548;9.926;2024-01-07T08:21:25;11.50;;;4.32;;
17953;SDS011;9102;53.548;9.926;2024-01-07T08:23:52;7.47;;;3.72;;
17953;SDS011;9102;53.548;9.926;2024-01-07T08:26:20;13.73;;;4.78;;
17953;SDS011;9102;53.548;9.926;2024-01-07T08:28:48;13.80;;;4.40;;
17953;SDS011;9102;53.548;9.926;2024-01-07T08:31:15;7.47;;;3.63;;
17953;SDS011;9102;53.548;9.926;2024-01-07T08:33:41;9.02;;;4.32;;
17953;SDS011;9102;53.548;9.926;2024-01-07T08:36:08;11.35;;;4.13;;
17953;SDS011;9102;53.548;9.926;2024-01-07T08:38:35;8.77;;;3.88;;
17953;SDS011;9102;53.548;9.926;2024-01-07T08:41:02;14.13;;;3.55;;
17953;SDS011;9102;53.548;9.926;2024-01-07T08:43:31;13.40;;;4.03;;
17953;SDS011;9102;53.548;9.926;2024-01-07T08:45:57;10.63;;;3.80;;
17953;SDS011;9102;53.548;9.926;2024-01-07T08:48:24;12.65;;;3.60;;
17953;SDS011;9102;53.548;9.926;2024-01-07T08:50:51;18.83;;;5.70;;
17953;SDS011;9102;53.548;9.926;2024-01-07T08:53:18;20.67;;;7.50;;
17953;SDS011;9102;53.548;9.926;2024-01-07T08:55:45;9.77;;;4.43;;
17953;SDS011;9102;53.548;9.926;2024-01-07T08:58:12;9.20;;;4.18;;
17953;SDS011;9102;53.548;9.926;2024-01-07T09:00:41;12.57;;;3.58;;
17953;SDS011;9102;53.548;9.926;2024-01-07T09:03:07;8.07;;;3.35;;
17953;SDS011;9102;53.548;9.926;2024-01-07T09:05:34;10.88;;;4.85;;
17953;SDS011;9102;53.548;9.926;2024-01-07T09:08:01;12.48;;;4.45;;
17953;SDS011;9102;53.548;9.926;2024-01-07T09:10:28;5.00;;;3.05;;
17953;SDS011;9102;53.548;9.926;2024-01-07T09:12:55;6.28;;;3.00;;
17953;SDS011;9102;53.548;9.926;2024-01-07T09:15:22;5.20;;;2.50;;
17953;SDS011;9102;53.548;9.926;2024-01-07T09:17:50;11.10;;;2.97;;
17953;SDS011;9102;53.548;9.926;2024-01-07T09:20:17;7.13;;;3.03;;
17953;SDS011;9102;53.548;9.926;2024-01-07T09:22:44;5.38;;;2.88;;
17953;SDS011;9102;53.548;9.926;2024-01-07T09:25:13;5.40;;;2.60;;
17953;SDS011;9102;53.548;9.926;2024-01-07T09:27:40;5.78;;;2.95;;
17953;SDS011;9102;53.548;9.926;2024-01-07T09:30:08;7.97;;;2.88;;
17953;SDS011;9102;53.548;9.926;2024-01-07T09:32:39;8.38;;;3.13;;
17953;SDS011;9102;53.548;9.926;2024-01-07T09:35:07;4.93;;;2.75;;
17953;SDS011;9102;53.548;9.926;2024-01-07T09:37:34;7.25;;;2.95;;
17953;SDS011;9102;53.548;9.926;2024-01-07T09:40:01;6.75;;;2.58;;
17953;SDS011;9102;53.548;9.926;2024-01-07T09:42:30;4.85;;;2.35;;
17953;SDS011;9102;53.548;9.926;2024-01-07T09:44:57;5.82;;;2.70;;
17953;SDS011;9102;53.548;9.926;2024-01-07T09:47:28;6.80;;;2.80;;
17953;SDS011;9102;53.548;9.926;2024-01-07T09:49:55;16.63;;;5.38;;
17953;SDS011;9102;53.548;9.926;2024-01-07T09:52:23;9.98;;;3.33;;
17953;SDS011;9102;53.548;9.926;2024-01-07T09:54:53;14.90;;;3.78;;
17953;SDS011;9102;53.548;9.926;2024-01-07T09:57:24;8.45;;;3.90;;
17953;SDS011;9102;53.548;9.926;2024-01-07T09:59:51;6.07;;;2.83;;
17953;SDS011;9102;53.548;9.926;2024-01-07T10:02:18;6.43;;;3.40;;
17953;SDS011;9102;53.548;9.926;2024-01-07T10:04:47;12.15;;;3.75;;
17953;SDS011;9102;53.548;9.926;2024-01-07T10:07:14;7.00;;;2.90;;
17953;SDS011;9102;53.548;9.926;2024-01-07T10:09:43;6.93;;;3.28;;
17953;SDS011;9102;53.548;9.926;2024-01-07T10:12:10;7.70;;;3.00;;
17953;SDS011;9102;53.548;9.926;2024-01-07T10:14:38;8.45;;;3.80;;
17953;SDS011;9102;53.548;9.926;2024-01-07T10:17:16;7.60;;;3.70;;
17953;SDS011;9102;53.548;9.926;2024-01-07T10:19:43;6.82;;;3.55;;
17953;SDS011;9102;53.548;9.926;2024-01-07T10:22:12;6.47;;;3.28;;
17953;SDS011;9102;53.548;9.926;2024-01-07T10:24:39;11.65;;;4.00;;
17953;SDS011;9102;53.548;9.926;2024-01-07T10:27:08;7.90;;;3.00;;
17953;SDS011;9102;53.548;9.926;2024-01-07T10:29:35;7.95;;;3.80;;
17953;SDS011;9102;53.548;9.926;2024-01-07T10:32:03;11.15;;;4.60;;
17953;SDS011;9102;53.548;9.926;2024-01-07T10:34:31;8.43;;;3.45;;
17953;SDS011;9102;53.548;9.926;2024-01-07T10:36:58;7.30;;;3.42;;
17953;SDS011;9102;53.548;9.926;2024-01-07T10:39:25;8.13;;;3.60;;
17953;SDS011;9102;53.548;9.926;2024-01-07T10:41:52;6.72;;;3.38;;
17953;SDS011;9102;53.548;9.926;2024-01-07T10:44:24;7.15;;;3.42;;
17953;SDS011;9102;53.548;9.926;2024-01-07T10:46:52;6.50;;;2.95;;
17953;SDS011;9102;53.548;9.926;2024-01-07T10:49:21;5.10;;;2.85;;
17953;SDS011;9102;53.548;9.926;2024-01-07T10:51:50;4.80;;;2.92;;
17953;SDS011;9102;53.548;9.926;2024-01-07T10:54:27;7.55;;;3.13;;
17953;SDS011;9102;53.548;9.926;2024-01-07T10:56:56;6.47;;;3.28;;
17953;SDS011;9102;53.548;9.926;2024-01-07T10:59:26;9.02;;;2.67;;
17953;SDS011;9102;53.548;9.926;2024-01-07T11:01:55;10.25;;;2.53;;
17953;SDS011;9102;53.548;9.926;2024-01-07T11:04:22;5.07;;;2.80;;
17953;SDS011;9102;53.548;9.926;2024-01-07T11:06:57;8.00;;;2.75;;
17953;SDS011;9102;53.548;9.926;2024-01-07T11:09:31;9.07;;;3.20;;
17953;SDS011;9102;53.548;9.926;2024-01-07T11:12:02;6.90;;;2.65;;
17953;SDS011;9102;53.548;9.926;2024-01-07T11:14:35;7.65;;;3.33;;
17953;SDS011;9102;53.548;9.926;2024-01-07T11:17:07;6.75;;;3.28;;
17953;SDS011;9102;53.548;9.926;2024-01-07T11:19:34;7.40;;;3.00;;
17953;SDS011;9102;53.548;9.926;2024-01-07T11:24:49;6.90;;;3.00;;
17953;SDS011;9102;53.548;9.926;2024-01-07T11:27:16;5.22;;;3.30;;
17953;SDS011;9102;53.548;9.926;2024-01-07T11:29:50;9.60;;;4.18;;
17953;SDS011;9102;53.548;9.926;2024-01-07T11:32:20;9.57;;;3.42;;
17953;SDS011;9102;53.548;9.926;2024-01-07T11:34:50;9.73;;;3.00;;
17953;SDS011;9102;53.548;9.926;2024-01-07T11:37:18;6.13;;;3.05;;
17953;SDS011;9102;53.548;9.926;2024-01-07T11:39:47;10.20;;;3.95;;
17953;SDS011;9102;53.548;9.926;2024-01-07T11:42:15;11.13;;;3.53;;
17953;SDS011;9102;53.548;9.926;2024-01-07T11:44:46;6.93;;;3.35;;
17953;SDS011;9102;53.548;9.926;2024-01-07T11:47:14;9.80;;;3.58;;
17953;SDS011;9102;53.548;9.926;2024-01-07T11:49:42;7.88;;;3.22;;
17953;SDS011;9102;53.548;9.926;2024-01-07T11:52:09;7.00;;;3.22;;
17953;SDS011;9102;53.548;9.926;2024-01-07T11:54:36;6.47;;;3.50;;
17953;SDS011;9102;53.548;9.926;2024-01-07T11:57:04;6.13;;;3.72;;
17953;SDS011;9102;53.548;9.926;2024-01-07T11:59:30;9.25;;;3.25;;
17953;SDS011;9102;53.548;9.926;2024-01-07T12:02:00;6.07;;;3.22;;
17953;SDS011;9102;53.548;9.926;2024-01-07T12:04:29;6.35;;;2.75;;
17953;SDS011;9102;53.548;9.926;2024-01-07T12:06:56;10.10;;;3.40;;
17953;SDS011;9102;53.548;9.926;2024-01-07T12:09:24;5.72;;;3.17;;
17953;SDS011;9102;53.548;9.926;2024-01-07T12:11:51;8.63;;;3.10;;
17953;SDS011;9102;53.548;9.926;2024-01-07T12:14:18;5.85;;;3.33;;
17953;SDS011;9102;53.548;9.926;2024-01-07T12:16:45;8.15;;;3.20;;
17953;SDS011;9102;53.548;9.926;2024-01-07T12:19:14;5.63;;;2.95;;
17953;SDS011;9102;53.548;9.926;2024-01-07T12:21:41;5.47;;;2.90;;
17953;SDS011;9102;53.548;9.926;2024-01-07T12:24:07;5.57;;;3.03;;
17953;SDS011;9102;53.548;9.926;2024-01-07T12:26:34;7.90;;;3.40;;
17953;SDS011;9102;53.548;9.926;2024-01-07T12:29:02;6.80;;;3.15;;
17953;SDS011;9102;53.548;9.926;2024-01-07T12:31:31;6.15;;;2.67;;
17953;SDS011;9102;53.548;9.926;2024-01-07T12:33:59;5.68;;;2.90;;
17953;SDS011;9102;53.548;9.926;2024-01-07T12:36:29;6.05;;;2.88;;
17953;SDS011;9102;53.548;9.926;2024-01-07T12:38:56;5.22;;;2.60;;
17953;SDS011;9102;53.548;9.926;2024-01-07T12:41:23;6.90;;;2.70;;
17953;SDS011;9102;53.548;9.926;2024-01-07T12:43:50;5.75;;;2.65;;
17953;SDS011;9102;53.548;9.926;2024-01-07T12:46:17;5.82;;;2.47;;
17953;SDS011;9102;53.548;9.926;2024-01-07T12:48:44;5.68;;;2.67;;
17953;SDS011;9102;53.548;9.926;2024-01-07T12:51:11;6.60;;;2.75;;
17953;SDS011;9102;53.548;9.926;2024-01-07T12:53:39;6.82;;;2.92;;
17953;SDS011;9102;53.548;9.926;2024-01-07T12:56:06;3.92;;;2.50;;
17953;SDS011;9102;53.548;9.926;2024-01-07T12:58:33;12.63;;;3.13;;
17953;SDS011;9102;53.548;9.926;2024-01-07T13:01:00;9.98;;;2.83;;
17953;SDS011;9102;53.548;9.926;2024-01-07T13:03:27;6.13;;;3.03;;
17953;SDS011;9102;53.548;9.926;2024-01-07T13:05:55;3.75;;;2.08;;
17953;SDS011;9102;53.548;9.926;2024-01-07T13:08:22;4.65;;;2.50;;
17953;SDS011;9102;53.548;9.926;2024-01-07T13:10:52;4.47;;;2.30;;
17953;SDS011;9102;53.548;9.926;2024-01-07T13:13:19;4.05;;;2.35;;
17953;SDS011;9102;53.548;9.926;2024-01-07T13:15:46;7.10;;;2.70;;
17953;SDS011;9102;53.548;9.926;2024-01-07T13:18:15;4.63;;;2.40;;
17953;SDS011;9102;53.548;9.926;2024-01-07T13:20:42;4.72;;;2.35;;
17953;SDS011;9102;53.548;9.926;2024-01-07T13:23:09;4.97;;;2.58;;
17953;SDS011;9102;53.548;9.926;2024-01-07T13:25:36;8.45;;;3.28;;
17953;SDS011;9102;53.548;9.926;2024-01-07T13:28:04;5.03;;;2.50;;
17953;SDS011;9102;53.548;9.926;2024-01-07T13:30:35;4.75;;;2.10;;
17953;SDS011;9102;53.548;9.926;2024-01-07T13:33:03;10.18;;;2.17;;
17953;SDS011;9102;53.548;9.926;2024-01-07T13:35:30;3.17;;;2.05;;
17953;SDS011;9102;53.548;9.926;2024-01-07T13:37:56;7.30;;;2.70;;
17953;SDS011;9102;53.548;9.926;2024-01-07T13:40:23;3.50;;;1.80;;
17953;SDS011;9102;53.548;9.926;2024-01-07T13:42:50;3.90;;;2.38;;
17953;SDS011;9102;53.548;9.926;2024-01-07T13:45:19;4.72;;;2.40;;
17953;SDS011;9102;53.548;9.926;2024-01-07T13:47:48;4.22;;;2.13;;
17953;SDS011;9102;53.548;9.926;2024-01-07T13:50:15;3.67;;;2.17;;
17953;SDS011;9102;53.548;9.926;2024-01-07T13:52:43;4.43;;;1.60;;
17953;SDS011;9102;53.548;9.926;2024-01-07T13:55:10;4.82;;;1.83;;
17953;SDS011;9102;53.548;9.926;2024-01-07T13:57:38;4.43;;;1.98;;
17953;SDS011;9102;53.548;9.926;2024-01-07T14:00:06;4.05;;;1.88;;
17953;SDS011;9102;53.548;9.926;2024-01-07T14:02:36;6.78;;;2.08;;
17953;SDS011;9102;53.548;9.926;2024-01-07T14:05:05;3.72;;;2.10;;
17953;SDS011;9102;53.548;9.926;2024-01-07T14:07:34;4.97;;;1.80;;
17953;SDS011;9102;53.548;9.926;2024-01-07T14:10:00;5.15;;;2.92;;
17953;SDS011;9102;53.548;9.926;2024-01-07T14:12:29;5.00;;;1.95;;
17953;SDS011;9102;53.548;9.926;2024-01-07T14:14:56;9.35;;;2.03;;
17953;SDS011;9102;53.548;9.926;2024-01-07T14:17:23;3.17;;;1.73;;
17953;SDS011;9102;53.548;9.926;2024-01-07T14:19:52;4.63;;;2.10;;
17953;SDS011;9102;53.548;9.926;2024-01-07T14:22:19;4.38;;;2.00;;
17953;SDS011;9102;53.548;9.926;2024-01-07T14:24:46;3.47;;;1.83;;
17953;SDS011;9102;53.548;9.926;2024-01-07T14:27:13;5.22;;;2.28;;
17953;SDS011;9102;53.548;9.926;2024-01-07T14:29:40;8.00;;;2.38;;
17953;SDS011;9102;53.548;9.926;2024-01-07T14:32:07;3.05;;;2.03;;
17953;SDS011;9102;53.548;9.926;2024-01-07T14:34:37;4.05;;;2.10;;
17953;SDS011;9102;53.548;9.926;2024-01-07T14:37:05;6.80;;;2.30;;
17953;SDS011;9102;53.548;9.926;2024-01-07T14:39:32;6.38;;;2.00;;
17953;SDS011;9102;53.548;9.926;2024-01-07T14:41:59;4.50;;;1.75;;
17953;SDS011;9102;53.548;9.926;2024-01-07T14:44:26;3.47;;;1.80;;
17953;SDS011;9102;53.548;9.926;2024-01-07T14:46:53;3.00;;;1.80;;
17953;SDS011;9102;53.548;9.926;2024-01-07T14:49:19;4.13;;;2.20;;
17953;SDS011;9102;53.548;9.926;2024-01-07T14:51:46;4.40;;;2.43;;
17953;SDS011;9102;53.548;9.926;2024-01-07T14:54:14;4.53;;;2.00;;
17953;SDS011;9102;53.548;9.926;2024-01-07T14:56:41;4.43;;;2.03;;
17953;SDS011;9102;53.548;9.926;2024-01-07T14:59:08;3.50;;;2.13;;
17953;SDS011;9102;53.548;9.926;2024-01-07T15:01:35;3.30;;;1.88;;
17953;SDS011;9102;53.548;9.926;2024-01-07T15:04:04;3.10;;;1.73;;